Time;durP1;ratioP1;P1;durP2;ratioP2;P2;SDS_P1;SDS_P2;PMS_P1;PMS_P2;Temp;Humidity;BMP_temperature;BMP_pressure;BME280_temperature;BME280_humidity;BME280_pressure;Samples;Min_cycle;Max_cycle;Signal;HPM_P1;HPM_P2
2023/09/06 00:00:32;;;;;;;;;;;;;;;28.77;35.84;101013.16;5076062;28;1039;-26
2023/09/06 00:02:58;;;;;;;;;;;;;;;28.71;36.10;101010.16;5075729;28;1094;-31
2023/09/06 00:05:23;;;;;;;;;;;;;;;28.58;36.08;101008.13;5068238;28;2768;-28
2023/09/06 00:07:49;;;;;;;;;;;;;;;28.73;35.80;101015.41;5057679;28;1178;-28
2023/09/06 00:10:14;;;;;;;;;;;;;;;28.67;36.08;101010.75;5067732;28;1891;-27
2023/09/06 00:12:40;;;;;;;;;;;;;;;28.70;35.96;101004.94;5057883;28;1111;-28
2023/09/06 00:15:06;;;;;;;;;;;;;;;28.61;35.85;101009.63;5076175;28;1020;-28
2023/09/06 00:17:36;;;;;;;;;;;;;;;28.69;35.67;101000.56;5075685;28;1019;-26
2023/09/06 00:20:05;;;;;;;;;;;;;;;28.75;35.35;101002.53;5076135;28;1078;-27
2023/09/06 00:22:31;;;;;;;;;;;;;;;28.58;36.33;101002.72;5073146;28;1042;-29
2023/09/06 00:24:57;;;;;;;;;;;;;;;28.41;36.71;101004.75;5065104;28;1032;-27
2023/09/06 00:27:23;;;;;;;;;;;;;;;28.63;35.86;100996.72;5075914;28;1090;-28
2023/09/06 00:29:48;;;;;;;;;;;;;;;28.53;35.63;100998.91;5076029;28;1898;-30
2023/09/06 00:32:14;;;;;;;;;;;;;;;28.55;35.62;101007.66;5075950;28;1213;-27
2023/09/06 00:34:40;;;;;;;;;;;;;;;28.60;35.52;101005.22;5075326;28;1812;-29
2023/09/06 00:37:07;;;;;;;;;;;;;;;28.60;35.82;101010.66;5073637;28;1066;-28
2023/09/06 00:39:32;;;;;;;;;;;;;;;28.68;35.92;101007.84;5037833;28;1123;-29
2023/09/06 00:42:00;;;;;;;;;;;;;;;28.60;35.73;101010.66;5053550;28;1342;-32
2023/09/06 00:44:26;;;;;;;;;;;;;;;28.62;36.07;101014.00;5075800;28;1222;-32
2023/09/06 00:46:51;;;;;;;;;;;;;;;28.58;36.00;101013.53;5073075;28;1047;-27
2023/09/06 00:49:17;;;;;;;;;;;;;;;28.62;36.02;101016.72;5055835;28;1995;-31
2023/09/06 00:51:42;;;;;;;;;;;;;;;28.57;35.98;101019.16;5053208;28;1035;-31
2023/09/06 00:54:08;;;;;;;;;;;;;;;28.53;35.73;101004.31;5074809;28;988;-30
2023/09/06 00:56:33;;;;;;;;;;;;;;;28.56;35.82;101015.59;5075903;28;973;-30
2023/09/06 00:59:01;;;;;;;;;;;;;;;28.59;35.94;101017.09;5066237;28;1028;-30
2023/09/06 01:01:28;;;;;;;;;;;;;;;28.53;35.82;101023.25;5052890;28;1312;-32
2023/09/06 01:03:53;;;;;;;;;;;;;;;28.58;35.21;101016.25;5057503;28;1103;-29
2023/09/06 01:06:21;;;;;;;;;;;;;;;28.44;35.70;101017.09;5061802;28;2528;-28
2023/09/06 01:08:55;;;;;;;;;;;;;;;28.53;35.55;101012.44;5048331;28;1963;-30
2023/09/06 01:11:21;;;;;;;;;;;;;;;28.44;35.73;101017.09;5071007;28;1159;-28
2023/09/06 01:13:59;;;;;;;;;;;;;;;28.44;35.64;101004.41;5075624;28;996;-30
2023/09/06 01:16:32;;;;;;;;;;;;;;;28.43;35.29;101002.72;5057778;28;1183;-32
2023/09/06 01:18:58;;;;;;;;;;;;;;;28.58;35.42;101009.97;5075320;28;1159;-30
2023/09/06 01:21:24;;;;;;;;;;;;;;;28.33;36.02;101011.09;5057292;28;1130;-27
2023/09/06 01:23:51;;;;;;;;;;;;;;;28.47;35.44;101014.84;5074534;28;956;-29
2023/09/06 01:26:17;;;;;;;;;;;;;;;28.54;35.14;101014.94;5058030;28;1117;-32
2023/09/06 01:28:43;;;;;;;;;;;;;;;28.40;35.53;101013.06;5040559;28;1906;-28
2023/09/06 01:31:08;;;;;;;;;;;;;;;28.44;34.78;101004.41;5057295;28;1171;-28
2023/09/06 01:33:34;;;;;;;;;;;;;;;28.50;34.94;101010.94;5075318;28;1038;-29
2023/09/06 01:36:00;;;;;;;;;;;;;;;28.40;35.35;101008.50;5065903;28;2451;-28
2023/09/06 01:38:25;;;;;;;;;;;;;;;28.33;34.96;101007.56;5075087;28;1075;-30
2023/09/06 01:40:51;;;;;;;;;;;;;;;28.49;34.84;101009.25;5075314;28;996;-27
2023/09/06 01:43:18;;;;;;;;;;;;;;;28.36;35.42;101004.50;5075431;28;1129;-29
2023/09/06 01:45:54;;;;;;;;;;;;;;;28.43;34.96;101004.56;5037221;28;1412;-31
2023/09/06 01:48:20;;;;;;;;;;;;;;;28.46;34.84;101007.75;5056993;28;910;-30
2023/09/06 01:50:46;;;;;;;;;;;;;;;28.40;34.87;101003.09;5075396;28;1895;-32
2023/09/06 01:53:14;;;;;;;;;;;;;;;28.31;35.17;101009.59;5076163;28;1193;-28
2023/09/06 01:55:41;;;;;;;;;;;;;;;28.32;35.01;101013.97;5078521;28;1011;-29
2023/09/06 01:58:08;;;;;;;;;;;;;;;28.39;34.98;100998.72;5060114;28;1262;-28
2023/09/06 02:00:36;;;;;;;;;;;;;;;28.43;34.74;101004.56;5060700;28;1343;-31
2023/09/06 02:03:02;;;;;;;;;;;;;;;28.31;35.10;101010.41;5078439;28;1094;-29
2023/09/06 02:05:30;;;;;;;;;;;;;;;28.40;34.83;101007.66;5069194;28;2469;-29
2023/09/06 02:07:55;;;;;;;;;;;;;;;28.37;34.78;101008.88;5060977;28;1146;-27
2023/09/06 02:10:21;;;;;;;;;;;;;;;28.31;35.20;101009.59;5054591;28;1905;-27
2023/09/06 02:12:46;;;;;;;;;;;;;;;28.46;34.92;101021.28;5078193;28;1075;-31
2023/09/06 02:15:14;;;;;;;;;;;;;;;28.35;34.79;101019.03;5078388;28;1000;-31
2023/09/06 02:17:42;;;;;;;;;;;;;;;28.42;34.70;101016.44;5060542;28;1228;-32
2023/09/06 02:20:28;;;;;;;;;;;;;;;28.37;34.95;101017.00;5060616;28;1182;-27
2023/09/06 02:22:57;;;;;;;;;;;;;;;28.40;34.71;101029.28;5077543;28;1099;-29
2023/09/06 02:25:31;;;;;;;;;;;;;;;28.32;34.73;101022.94;5078099;28;1127;-30
2023/09/06 02:28:03;;;;;;;;;;;;;;;28.37;34.65;101019.69;5078020;28;1024;-30
2023/09/06 02:30:28;;;;;;;;;;;;;;;28.35;34.79;101019.03;5078201;28;1985;-28
2023/09/06 02:32:54;;;;;;;;;;;;;;;28.30;34.62;101026.81;5078185;28;1119;-28
2023/09/06 02:35:20;;;;;;;;;;;;;;;28.36;34.46;101015.31;5076244;28;2218;-28
2023/09/06 02:37:46;;;;;;;;;;;;;;;28.43;34.38;101024.34;5065967;28;1039;-29
2023/09/06 02:40:12;;;;;;;;;;;;;;;28.34;34.92;101029.00;5059930;28;1112;-33
2023/09/06 02:42:38;;;;;;;;;;;;;;;28.23;34.84;101030.28;5059672;28;1262;-28
2023/09/06 02:45:06;;;;;;;;;;;;;;;28.20;35.13;101024.38;5077831;28;1103;-29
2023/09/06 02:47:34;;;;;;;;;;;;;;;28.27;34.86;101027.19;5069950;28;884;-28
2023/09/06 02:50:06;;;;;;;;;;;;;;;28.33;35.01;101024.63;5072211;28;2099;-30
2023/09/06 02:52:35;;;;;;;;;;;;;;;28.23;34.95;101026.72;5059774;28;1332;-28
2023/09/06 02:55:04;;;;;;;;;;;;;;;28.22;34.84;101023.19;5077593;28;1026;-30
2023/09/06 02:57:31;;;;;;;;;;;;;;;28.27;35.06;101029.91;5077222;28;1071;-29
2023/09/06 02:59:57;;;;;;;;;;;;;;;28.16;35.25;101026.63;5055442;28;1159;-28
2023/09/06 03:02:22;;;;;;;;;;;;;;;28.26;34.95;101034.47;5057230;28;1165;-28
2023/09/06 03:04:51;;;;;;;;;;;;;;;28.20;35.09;101036.06;5051371;28;2464;-28
2023/09/06 03:07:19;;;;;;;;;;;;;;;28.10;35.68;101041.72;5049442;28;1087;-29
2023/09/06 03:09:44;;;;;;;;;;;;;;;28.12;35.38;101033.44;5077027;28;1918;-27
2023/09/06 03:12:14;;;;;;;;;;;;;;;28.19;35.30;101039.78;5059275;28;1149;-29
2023/09/06 03:14:44;;;;;;;;;;;;;;;28.28;35.52;101037.00;5059119;28;1106;-28
2023/09/06 03:17:11;;;;;;;;;;;;;;;28.21;35.08;101042.31;5057116;28;1301;-32
2023/09/06 03:19:45;;;;;;;;;;;;;;;28.33;35.15;101048.13;5039270;28;1243;-29
2023/09/06 03:22:12;;;;;;;;;;;;;;;28.21;35.02;101040.44;5051963;28;1242;-29
2023/09/06 03:24:42;;;;;;;;;;;;;;;28.09;35.41;101047.31;5052827;28;1233;-30
2023/09/06 03:27:08;;;;;;;;;;;;;;;28.12;34.63;101057.78;5052509;28;1207;-29
2023/09/06 03:29:36;;;;;;;;;;;;;;;28.22;35.22;101047.53;5059035;28;1910;-28
2023/09/06 03:32:07;;;;;;;;;;;;;;;28.27;35.05;101060.50;5058356;28;1232;-31
2023/09/06 03:34:34;;;;;;;;;;;;;;;28.01;35.62;101052.81;5058554;28;2635;-29
2023/09/06 03:36:59;;;;;;;;;;;;;;;28.02;35.46;101062.56;5076709;28;1071;-27
2023/09/06 03:39:28;;;;;;;;;;;;;;;27.75;35.31;101054.84;5058723;28;1126;-26
2023/09/06 03:41:56;;;;;;;;;;;;;;;27.19;36.12;101058.53;5076469;28;1084;-26
2023/09/06 03:44:24;;;;;;;;;;;;;;;26.91;36.73;101070.56;5074581;28;1302;-25
2023/09/06 03:46:51;;;;;;;;;;;;;;;26.79;36.86;101078.22;5058006;28;1230;-28
2023/09/06 03:49:17;;;;;;;;;;;;;;;26.69;37.20;101069.47;5076319;28;1911;-29
2023/09/06 03:51:42;;;;;;;;;;;;;;;26.90;36.65;101085.09;5058832;28;1190;-26
2023/09/06 03:54:09;;;;;;;;;;;;;;;27.08;37.08;101075.94;5058462;28;992;-29
2023/09/06 03:56:38;;;;;;;;;;;;;;;27.36;36.55;101095.22;5057675;28;1317;-28
2023/09/06 03:59:08;;;;;;;;;;;;;;;27.66;36.30;101091.03;5058264;28;1293;-28
2023/09/06 04:01:33;;;;;;;;;;;;;;;27.41;36.40;101094.69;5057727;28;1639;-30
2023/09/06 04:04:00;;;;;;;;;;;;;;;27.41;36.39;101100.09;5076017;28;1047;-31
2023/09/06 04:06:28;;;;;;;;;;;;;;;27.14;36.63;101105.78;5046641;28;2110;-30
2023/09/06 04:08:55;;;;;;;;;;;;;;;27.30;36.24;101101.34;5055363;28;1910;-26
2023/09/06 04:11:21;;;;;;;;;;;;;;;27.30;36.31;101117.56;5041129;28;1092;-29
2023/09/06 04:13:47;;;;;;;;;;;;;;;27.72;35.19;101110.13;5075239;28;1094;-27
2023/09/06 04:16:16;;;;;;;;;;;;;;;27.56;36.07;101108.28;5056985;28;1275;-31
2023/09/06 04:18:43;;;;;;;;;;;;;;;27.48;36.56;101113.75;5058152;28;1103;-26
2023/09/06 04:21:09;;;;;;;;;;;;;;;27.44;36.42;101102.47;5057444;28;1005;-27
2023/09/06 04:23:36;;;;;;;;;;;;;;;27.31;36.92;101113.00;5057763;28;1154;-28
2023/09/06 04:26:03;;;;;;;;;;;;;;;26.91;37.36;101116.47;5057432;28;1135;-27
2023/09/06 04:28:30;;;;;;;;;;;;;;;27.43;36.33;101121.53;5056653;28;1371;-27
2023/09/06 04:30:58;;;;;;;;;;;;;;;27.29;37.17;101121.28;5057046;28;1985;-30
2023/09/06 04:33:27;;;;;;;;;;;;;;;27.17;36.73;101123.50;5075899;28;1121;-30
2023/09/06 04:36:07;;;;;;;;;;;;;;;27.21;36.87;101124.84;5049486;28;2013;-30
2023/09/06 04:38:33;;;;;;;;;;;;;;;27.28;37.16;101121.47;5061101;28;1332;-28
2023/09/06 04:41:02;;;;;;;;;;;;;;;27.54;36.68;101118.47;5057577;28;1161;-27
2023/09/06 04:43:33;;;;;;;;;;;;;;;27.38;37.11;101127.47;5057727;28;1124;-29
2023/09/06 04:45:59;;;;;;;;;;;;;;;27.31;37.09;101121.91;5057390;28;1427;-27
2023/09/06 04:48:27;;;;;;;;;;;;;;;27.74;36.14;101120.75;5057514;28;1241;-31
2023/09/06 04:50:59;;;;;;;;;;;;;;;27.95;36.04;101113.84;5056962;28;1910;-28
2023/09/06 04:53:25;;;;;;;;;;;;;;;28.09;35.90;101114.94;5076136;28;1138;-27
2023/09/06 04:55:52;;;;;;;;;;;;;;;28.21;35.85;101113.47;5057508;28;1296;-31
2023/09/06 04:58:33;;;;;;;;;;;;;;;28.22;36.11;101111.59;5057736;28;1432;-31
2023/09/06 05:01:01;;;;;;;;;;;;;;;28.13;36.41;101113.53;5044101;28;1350;-29
2023/09/06 05:03:27;;;;;;;;;;;;;;;28.10;36.37;101116.59;5034407;28;1162;-28
2023/09/06 05:05:53;;;;;;;;;;;;;;;28.21;36.09;101115.34;5034045;28;1842;-32
2023/09/06 05:08:22;;;;;;;;;;;;;;;28.30;36.61;101118.81;5034423;28;1099;-29
2023/09/06 05:10:51;;;;;;;;;;;;;;;28.33;36.22;101122.03;5030648;28;1902;-30
2023/09/06 05:13:18;;;;;;;;;;;;;;;28.22;36.49;101123.28;5030784;28;1094;-27
2023/09/06 05:15:44;;;;;;;;;;;;;;;28.36;36.36;101126.25;5033885;28;1889;-28
2023/09/06 05:18:11;;;;;;;;;;;;;;;28.33;35.79;101126.59;5034006;28;1139;-30
2023/09/06 05:20:38;;;;;;;;;;;;;;;28.54;35.42;101116.94;5034074;28;1331;-31
2023/09/06 05:23:09;;;;;;;;;;;;;;;28.66;35.11;101125.47;5034053;28;1297;-29
2023/09/06 05:25:35;;;;;;;;;;;;;;;28.66;34.78;101131.69;5033864;28;1405;-33
2023/09/06 05:28:05;;;;;;;;;;;;;;;28.74;35.10;101130.78;5034470;28;1231;-30
2023/09/06 05:30:32;;;;;;;;;;;;;;;28.75;35.10;101120.78;5038226;28;1898;-30
2023/09/06 05:32:59;;;;;;;;;;;;;;;28.73;34.74;101129.94;5037586;28;1166;-29
2023/09/06 05:35:25;;;;;;;;;;;;;;;28.69;34.88;101125.94;5028772;28;1825;-29
2023/09/06 05:37:52;;;;;;;;;;;;;;;28.76;35.16;101134.13;5037552;28;1285;-30
2023/09/06 05:40:22;;;;;;;;;;;;;;;28.70;34.59;101129.47;5037777;28;1116;-30
2023/09/06 05:42:50;;;;;;;;;;;;;;;28.72;34.59;101127.41;5038983;28;1167;-29
2023/09/06 05:45:17;;;;;;;;;;;;;;;28.73;34.59;101138.06;5037824;28;1226;-31
2023/09/06 05:47:43;;;;;;;;;;;;;;;28.76;34.22;101136.84;5028825;28;1130;-31
2023/09/06 05:50:09;;;;;;;;;;;;;;;28.83;34.56;101139.66;5037343;28;1902;-29
2023/09/06 05:52:34;;;;;;;;;;;;;;;28.72;34.28;101130.97;5038549;28;1202;-27
2023/09/06 05:55:01;;;;;;;;;;;;;;;28.74;34.58;101125.38;5037426;28;1120;-32
2023/09/06 05:57:26;;;;;;;;;;;;;;;28.72;34.60;101135.53;5037266;28;2287;-28
2023/09/06 05:59:52;;;;;;;;;;;;;;;28.82;34.49;101135.28;5037740;28;1326;-31
2023/09/06 06:02:18;;;;;;;;;;;;;;;28.66;35.84;101134.41;5078600;28;1248;-27
2023/09/06 06:04:46;;;;;;;;;;;;;;;28.40;37.10;101141.06;5077086;28;2015;-32
2023/09/06 06:07:16;;;;;;;;;;;;;;;28.48;36.73;101138.31;5057793;28;1102;-27
2023/09/06 06:09:42;;;;;;;;;;;;;;;28.50;37.12;101137.25;5048212;28;1906;-29
2023/09/06 06:12:08;;;;;;;;;;;;;;;28.17;38.07;101133.81;5060796;28;1351;-32
2023/09/06 06:14:35;;;;;;;;;;;;;;;28.43;38.05;101147.97;5078209;28;1016;-32
2023/09/06 06:17:01;;;;;;;;;;;;;;;28.50;37.51;101148.09;5078330;28;1011;-28
2023/09/06 06:19:27;;;;;;;;;;;;;;;28.50;37.72;101146.22;5078232;28;1049;-33
2023/09/06 06:21:53;;;;;;;;;;;;;;;28.49;37.78;101155.38;5078076;28;1102;-28
2023/09/06 06:24:18;;;;;;;;;;;;;;;28.55;37.83;101151.09;5059472;28;1115;-32
2023/09/06 06:26:44;;;;;;;;;;;;;;;28.61;38.08;101158.50;5077481;28;1217;-30
2023/09/06 06:29:09;;;;;;;;;;;;;;;28.67;37.17;101163.16;5077967;28;1923;-28
2023/09/06 06:31:35;;;;;;;;;;;;;;;28.72;38.29;101166.16;5077951;28;1178;-29
2023/09/06 06:34:00;;;;;;;;;;;;;;;28.76;37.83;101163.09;5064712;28;1174;-28
2023/09/06 06:36:26;;;;;;;;;;;;;;;28.53;38.31;101169.41;5078252;28;1189;-28
2023/09/06 06:38:52;;;;;;;;;;;;;;;28.55;38.17;101161.91;5077910;28;1015;-29
2023/09/06 06:41:22;;;;;;;;;;;;;;;28.68;37.77;101166.69;5069523;28;1059;-31
2023/09/06 06:43:52;;;;;;;;;;;;;;;28.88;37.32;101174.31;5073586;28;1167;-28
2023/09/06 06:46:27;;;;;;;;;;;;;;;28.95;36.68;101183.38;5077983;28;1098;-31
2023/09/06 06:48:53;;;;;;;;;;;;;;;28.89;35.76;101181.41;5077878;28;1897;-30
2023/09/06 06:51:19;;;;;;;;;;;;;;;28.95;35.73;101176.09;5073306;28;1322;-32
2023/09/06 06:53:44;;;;;;;;;;;;;;;29.02;35.50;101180.78;5077583;28;1035;-30
2023/09/06 06:56:10;;;;;;;;;;;;;;;29.05;35.46;101173.16;5077507;28;1114;-29
2023/09/06 06:58:35;;;;;;;;;;;;;;;29.31;35.14;101177.25;5077757;28;1531;-28
2023/09/06 07:01:01;;;;;;;;;;;;;;;29.36;34.91;101183.97;5077493;28;1284;-26
2023/09/06 07:03:28;;;;;;;;;;;;;;;29.34;35.00;101182.28;5077602;28;1031;-28
2023/09/06 07:05:54;;;;;;;;;;;;;;;29.41;35.07;101195.09;5077749;28;1074;-30
2023/09/06 07:08:20;;;;;;;;;;;;;;;29.31;34.39;101192.69;5077490;28;1102;-26
2023/09/06 07:10:46;;;;;;;;;;;;;;;29.39;34.56;101197.16;5077594;28;1943;-29
2023/09/06 07:13:11;;;;;;;;;;;;;;;29.27;34.37;101194.91;5077165;28;1090;-29
2023/09/06 07:15:37;;;;;;;;;;;;;;;29.45;34.32;101196.38;5077407;28;1110;-27
2023/09/06 07:18:06;;;;;;;;;;;;;;;29.37;34.39;101200.06;5077536;28;1023;-27
2023/09/06 07:20:32;;;;;;;;;;;;;;;29.35;33.67;101202.09;5077278;28;1067;-30
2023/09/06 07:22:58;;;;;;;;;;;;;;;29.37;33.69;101194.63;5077359;28;1032;-28
2023/09/06 07:25:23;;;;;;;;;;;;;;;29.38;33.99;101193.59;5076887;28;1209;-29
2023/09/06 07:27:49;;;;;;;;;;;;;;;29.47;33.43;101194.34;5077081;28;1067;-26
2023/09/06 07:30:14;;;;;;;;;;;;;;;29.39;33.28;101194.44;5076958;28;1972;-29
2023/09/06 07:32:40;;;;;;;;;;;;;;;29.40;33.28;101186.13;5077020;28;1062;-26
2023/09/06 07:35:06;;;;;;;;;;;;;;;29.41;33.21;101189.69;5077380;28;1150;-29
2023/09/06 07:37:31;;;;;;;;;;;;;;;29.50;32.86;101190.41;5076264;28;1051;-26
2023/09/06 07:40:00;;;;;;;;;;;;;;;29.54;32.83;101187.16;5077030;28;1388;-30
2023/09/06 07:42:26;;;;;;;;;;;;;;;29.60;32.57;101192.84;5076935;28;1020;-27
2023/09/06 07:44:52;;;;;;;;;;;;;;;29.58;32.47;101199.28;5077079;28;1130;-26
2023/09/06 07:47:17;;;;;;;;;;;;;;;29.52;32.63;101197.31;5076539;28;1111;-30
2023/09/06 07:49:43;;;;;;;;;;;;;;;29.45;32.56;101199.94;5076669;28;1906;-29
2023/09/06 07:52:08;;;;;;;;;;;;;;;29.56;32.30;101200.50;5076217;28;1061;-31
2023/09/06 07:54:34;;;;;;;;;;;;;;;29.50;32.39;101199.38;5076851;28;1043;-30
2023/09/06 07:57:00;;;;;;;;;;;;;;;29.53;32.45;101192.75;5076525;28;1071;-27
2023/09/06 07:59:25;;;;;;;;;;;;;;;29.52;32.10;101193.78;5076614;28;1198;-29
2023/09/06 08:01:51;;;;;;;;;;;;;;;29.60;31.89;101198.28;5076046;28;1102;-28
2023/09/06 08:04:19;;;;;;;;;;;;;;;29.65;31.66;101202.09;5076385;28;1409;-29
2023/09/06 08:06:47;;;;;;;;;;;;;;;29.68;31.73;101190.88;5063288;28;996;-26
2023/09/06 08:09:13;;;;;;;;;;;;;;;29.78;31.50;101187.88;5076859;28;1980;-28
2023/09/06 08:11:38;;;;;;;;;;;;;;;29.74;30.97;101192.00;5076598;28;979;-28
2023/09/06 08:14:04;;;;;;;;;;;;;;;29.67;31.80;101193.78;5076315;28;1110;-27
2023/09/06 08:16:30;;;;;;;;;;;;;;;29.66;31.83;101192.13;5063106;28;1180;-29
2023/09/06 08:18:56;;;;;;;;;;;;;;;29.73;31.38;101189.47;5076207;28;1054;-27
2023/09/06 08:21:21;;;;;;;;;;;;;;;29.75;31.49;101193.66;5076219;28;1159;-28
2023/09/06 08:23:47;;;;;;;;;;;;;;;29.73;31.05;101198.44;5076365;28;1078;-26
2023/09/06 08:26:13;;;;;;;;;;;;;;;29.74;31.26;101199.28;5076217;28;1227;-30
2023/09/06 08:28:39;;;;;;;;;;;;;;;29.70;31.34;101188.81;5076334;28;1087;-26
2023/09/06 08:31:05;;;;;;;;;;;;;;;29.70;31.03;101194.25;5075856;28;1976;-27
2023/09/06 08:33:30;;;;;;;;;;;;;;;29.81;31.24;101197.50;5076315;28;1141;-28
2023/09/06 08:35:56;;;;;;;;;;;;;;;29.68;30.99;101201.72;5076687;28;1207;-28
2023/09/06 08:38:22;;;;;;;;;;;;;;;29.66;31.22;101194.81;5075721;28;1142;-30
2023/09/06 08:40:47;;;;;;;;;;;;;;;29.58;31.04;101176.75;5068522;28;1138;-29
2023/09/06 08:43:14;;;;;;;;;;;;;;;29.56;30.45;101170.69;5056280;28;1289;-27
2023/09/06 08:45:41;;;;;;;;;;;;;;;29.57;30.87;101191.34;5075547;28;1178;-29
2023/09/06 08:48:07;;;;;;;;;;;;;;;29.48;30.88;101181.63;5075943;28;1051;-28
2023/09/06 08:50:33;;;;;;;;;;;;;;;29.21;32.24;101192.97;5075754;28;1973;-28
2023/09/06 08:52:59;;;;;;;;;;;;;;;29.33;32.38;101188.75;5058587;28;1058;-29
2023/09/06 08:55:25;;;;;;;;;;;;;;;29.29;32.91;101189.31;5057976;28;1166;-32
2023/09/06 08:57:50;;;;;;;;;;;;;;;29.24;34.26;101192.59;5058304;28;1091;-28
2023/09/06 09:00:16;;;;;;;;;;;;;;;29.24;34.18;101184.47;5075198;28;1216;-28
2023/09/06 09:02:46;;;;;;;;;;;;;;;29.23;35.70;101195.47;5077365;28;925;-30
2023/09/06 09:05:11;;;;;;;;;;;;;;;29.17;35.45;101195.19;5080022;28;1217;-27
2023/09/06 09:07:37;;;;;;;;;;;;;;;29.14;34.99;101194.72;5080298;28;1055;-31
2023/09/06 09:10:09;;;;;;;;;;;;;;;29.08;34.91;101199.84;5079263;28;1976;-28
2023/09/06 09:12:35;;;;;;;;;;;;;;;29.09;36.32;101196.09;5079668;28;1134;-28
2023/09/06 09:15:02;;;;;;;;;;;;;;;28.89;36.73;101198.50;5079720;28;902;-28
2023/09/06 09:17:28;;;;;;;;;;;;;;;28.84;36.98;101204.44;5070271;28;1051;-29
2023/09/06 09:19:55;;;;;;;;;;;;;;;28.87;36.83;101210.53;5072057;28;1304;-29
2023/09/06 09:22:27;;;;;;;;;;;;;;;29.05;36.02;101199.38;5079575;28;1111;-29
2023/09/06 09:24:58;;;;;;;;;;;;;;;28.87;36.23;101208.66;5079378;28;1178;-28
2023/09/06 09:27:24;;;;;;;;;;;;;;;29.18;36.24;101199.56;5079256;28;885;-27
2023/09/06 09:29:50;;;;;;;;;;;;;;;29.12;35.94;101194.06;5061435;28;1969;-28
2023/09/06 09:32:15;;;;;;;;;;;;;;;29.28;36.25;101206.59;5079622;28;1011;-28
2023/09/06 09:34:41;;;;;;;;;;;;;;;28.95;37.21;101203.19;5079519;28;1121;-28
2023/09/06 09:37:10;;;;;;;;;;;;;;;28.94;36.24;101190.66;5066178;28;991;-29
2023/09/06 09:39:35;;;;;;;;;;;;;;;28.90;36.82;101204.75;5079054;28;878;-27
2023/09/06 09:42:01;;;;;;;;;;;;;;;28.81;36.02;101214.81;5079438;28;1019;-28
2023/09/06 09:44:27;;;;;;;;;;;;;;;28.87;36.38;101216.78;5078946;28;1138;-31
2023/09/06 09:46:54;;;;;;;;;;;;;;;28.92;36.61;101202.69;5079304;28;1082;-27
2023/09/06 09:49:20;;;;;;;;;;;;;;;28.86;36.03;101204.28;5079117;28;1905;-28
2023/09/06 09:51:48;;;;;;;;;;;;;;;29.00;36.31;101210.78;5060877;28;933;-29
2023/09/06 09:54:13;;;;;;;;;;;;;;;29.00;36.53;101208.06;5079354;28;1031;-30
2023/09/06 09:56:39;;;;;;;;;;;;;;;29.11;36.80;101203.22;5047529;28;1051;-29
2023/09/06 09:59:04;;;;;;;;;;;;;;;29.12;36.26;101196.78;5078717;28;1102;-30
2023/09/06 10:01:33;;;;;;;;;;;;;;;29.12;35.45;101196.78;5060864;28;1305;-27
2023/09/06 10:03:59;;;;;;;;;;;;;;;29.14;35.19;101201.00;5068675;28;1176;-27
2023/09/06 10:06:31;;;;;;;;;;;;;;;29.13;35.39;101190.34;5078853;28;1078;-28
2023/09/06 10:08:59;;;;;;;;;;;;;;;29.00;35.65;101191.81;5078660;28;1898;-28
2023/09/06 10:11:25;;;;;;;;;;;;;;;29.00;36.45;101201.78;5078307;28;1011;-27
2023/09/06 10:13:51;;;;;;;;;;;;;;;29.07;35.97;101197.34;5077916;28;1189;-31
2023/09/06 10:16:16;;;;;;;;;;;;;;;29.29;35.65;101198.28;5058683;28;1284;-27
2023/09/06 10:18:42;;;;;;;;;;;;;;;29.21;35.22;101203.81;5071907;28;1060;-31
2023/09/06 10:21:07;;;;;;;;;;;;;;;29.04;35.56;101197.72;5078101;28;1070;-31
2023/09/06 10:23:40;;;;;;;;;;;;;;;29.15;34.46;101205.38;5060694;28;1200;-28
2023/09/06 10:26:06;;;;;;;;;;;;;;;29.15;35.58;101191.81;5065867;28;1202;-32
2023/09/06 10:28:32;;;;;;;;;;;;;;;29.13;35.08;101195.75;5078290;28;1434;-30
2023/09/06 10:31:07;;;;;;;;;;;;;;;29.08;35.09;101197.16;5070643;28;1981;-26
2023/09/06 10:33:42;;;;;;;;;;;;;;;29.24;34.81;101195.28;5073758;28;1095;-27
2023/09/06 10:36:08;;;;;;;;;;;;;;;29.46;35.08;101192.66;5066155;28;1067;-27
2023/09/06 10:39:06;;;;;;;;;;;;;;;29.43;34.63;101198.44;5078100;28;1086;-29
2023/09/06 10:41:32;;;;;;;;;;;;;;;29.49;34.66;101180.59;5077822;28;1242;-29
2023/09/06 10:43:57;;;;;;;;;;;;;;;29.32;34.63;101178.94;5078234;28;1130;-28
2023/09/06 10:46:26;;;;;;;;;;;;;;;29.37;34.40;101183.78;5078666;28;1087;-26
2023/09/06 10:49:10;;;;;;;;;;;;;;;29.49;34.20;101186.03;5077837;28;1123;-29
2023/09/06 10:51:54;;;;;;;;;;;;;;;29.38;33.06;101188.16;5077882;28;1035;-29
2023/09/06 10:54:21;;;;;;;;;;;;;;;29.37;33.64;101182.94;5078523;28;1018;-28
2023/09/06 10:57:06;;;;;;;;;;;;;;;29.41;32.57;101193.22;5078143;28;1091;-29
2023/09/06 10:59:33;;;;;;;;;;;;;;;29.68;32.82;101190.88;5077855;28;1011;-33
2023/09/06 11:02:07;;;;;;;;;;;;;;;29.77;32.18;101175.34;5077552;28;1330;-28
2023/09/06 11:04:33;;;;;;;;;;;;;;;29.60;31.43;101174.72;5077446;28;1076;-28
2023/09/06 11:06:59;;;;;;;;;;;;;;;29.48;32.06;101181.63;5077894;28;1062;-27
2023/09/06 11:09:25;;;;;;;;;;;;;;;29.49;32.21;101177.88;5059660;28;1971;-31
2023/09/06 11:11:54;;;;;;;;;;;;;;;29.66;32.09;101181.25;5059833;28;1122;-28
2023/09/06 11:14:20;;;;;;;;;;;;;;;29.69;32.26;101170.03;5077322;28;1186;-30
2023/09/06 11:16:46;;;;;;;;;;;;;;;29.36;32.49;101156.88;5077392;28;1122;-31
2023/09/06 11:19:11;;;;;;;;;;;;;;;29.02;33.20;101157.28;5077648;28;1050;-31
2023/09/06 11:21:37;;;;;;;;;;;;;;;28.96;32.53;101161.50;5059806;28;1078;-30
2023/09/06 11:24:02;;;;;;;;;;;;;;;29.28;33.19;101150.53;5054715;28;1071;-29
2023/09/06 11:26:34;;;;;;;;;;;;;;;29.56;32.71;101151.72;5058301;28;1310;-27
2023/09/06 11:29:05;;;;;;;;;;;;;;;29.45;32.12;101143.03;5077284;28;1973;-28
2023/09/06 11:31:33;;;;;;;;;;;;;;;29.60;32.77;101150.31;5064229;28;964;-31
2023/09/06 11:34:03;;;;;;;;;;;;;;;29.75;32.67;101142.16;5077100;28;1055;-28
2023/09/06 11:36:32;;;;;;;;;;;;;;;29.80;32.17;101144.28;5077273;28;1066;-28
2023/09/06 11:38:57;;;;;;;;;;;;;;;29.90;31.60;101149.38;5059599;28;1024;-29
2023/09/06 11:41:23;;;;;;;;;;;;;;;29.72;31.81;101144.41;5059049;28;1090;-31
2023/09/06 11:43:51;;;;;;;;;;;;;;;29.80;31.87;101145.13;5054992;28;1054;-30
2023/09/06 11:46:17;;;;;;;;;;;;;;;29.82;33.02;101151.22;5050658;28;1134;-26
2023/09/06 11:48:44;;;;;;;;;;;;;;;24.51;41.62;101143.34;5076919;28;1059;-29
2023/09/06 11:51:12;;;;;;;;;;;;;;;22.66;47.50;101135.91;5058979;28;1918;-27
2023/09/06 11:53:53;;;;;;;;;;;;;;;25.47;42.75;101131.84;5076832;28;1023;-28
2023/09/06 11:56:33;;;;;;;;;;;;;;;23.84;46.34;101131.09;5076548;28;1126;-28
2023/09/06 11:58:59;;;;;;;;;;;;;;;22.83;52.70;101120.06;5076699;28;1066;-28
2023/09/06 12:01:52;;;;;;;;;;;;;;;25.86;43.23;101135.84;5076256;28;1042;-28
2023/09/06 12:04:22;;;;;;;;;;;;;;;22.87;49.10;101129.53;5076170;28;847;-27
2023/09/06 12:06:50;;;;;;;;;;;;;;;24.17;47.64;101118.00;5063377;28;1039;-29
2023/09/06 12:09:18;;;;;;;;;;;;;;;25.84;42.26;101112.78;5076816;28;1971;-29
2023/09/06 12:11:44;;;;;;;;;;;;;;;22.63;49.68;101112.91;5058983;28;1218;-28
2023/09/06 12:14:12;;;;;;;;;;;;;;;25.13;44.89;101103.06;5076691;28;1046;-29
2023/09/06 12:16:41;;;;;;;;;;;;;;;23.79;47.13;101109.22;5075925;28;889;-33
2023/09/06 12:19:12;;;;;;;;;;;;;;;22.54;52.52;101108.38;5076473;28;1174;-27
2023/09/06 12:21:38;;;;;;;;;;;;;;;25.19;45.13;101097.06;5076280;28;1126;-30
2023/09/06 12:24:03;;;;;;;;;;;;;;;23.34;48.71;101103.63;5076187;28;1115;-30
2023/09/06 12:26:29;;;;;;;;;;;;;;;26.25;42.32;101104.72;5075749;28;1189;-27
2023/09/06 12:28:55;;;;;;;;;;;;;;;27.29;40.02;101098.81;5075630;28;879;-27
2023/09/06 12:31:20;;;;;;;;;;;;;;;27.68;39.53;101103.38;5075925;28;1989;-27
2023/09/06 12:33:47;;;;;;;;;;;;;;;28.01;39.24;101104.19;5076151;28;1066;-32
2023/09/06 12:36:14;;;;;;;;;;;;;;;28.07;38.80;101101.59;5075869;28;1154;-27
2023/09/06 12:38:39;;;;;;;;;;;;;;;28.05;39.16;101092.81;5075898;28;1126;-28
2023/09/06 12:41:05;;;;;;;;;;;;;;;28.23;39.09;101097.06;5075886;28;887;-29
2023/09/06 12:43:34;;;;;;;;;;;;;;;28.25;36.80;101089.59;5076080;28;1127;-29
2023/09/06 12:46:00;;;;;;;;;;;;;;;28.26;38.02;101098.56;5075961;28;1441;-31
2023/09/06 12:48:26;;;;;;;;;;;;;;;26.22;41.49;101098.81;5078750;28;1019;-26